createdAt,value
2018-12-05T00:01:27.692Z,30.80
2018-12-05T00:04:06.682Z,15.97
2018-12-05T00:06:45.588Z,37.07
2018-12-05T00:09:24.529Z,20.27
2018-12-05T00:12:04.028Z,23.87
2018-12-05T00:14:43.123Z,35.13
2018-12-05T00:17:22.006Z,32.57
2018-12-05T00:20:04.803Z,26.37
2018-12-05T00:22:43.940Z,34.57
2018-12-05T00:25:22.914Z,30.50
2018-12-05T00:28:02.102Z,17.93
2018-12-05T00:30:41.107Z,33.17
2018-12-05T00:33:20.141Z,36.03
2018-12-05T00:36:00.066Z,21.17
2018-12-05T00:38:38.943Z,17.80
2018-12-05T00:41:18.135Z,41.43
2018-12-05T00:43:58.466Z,40.47
2018-12-05T00:46:37.972Z,32.00
2018-12-05T00:49:17.966Z,34.93
2018-12-05T00:51:56.742Z,36.00
2018-12-05T00:54:36.844Z,29.53
2018-12-05T01:02:17.760Z,49.13
2018-12-05T01:04:56.790Z,34.03
2018-12-05T01:07:36.066Z,39.70
2018-12-05T01:10:15.603Z,37.23
2018-12-05T01:12:55.149Z,29.93
2018-12-05T01:15:33.939Z,52.33
2018-12-05T01:18:12.550Z,30.60
2018-12-05T01:20:51.798Z,22.30
2018-12-05T01:23:30.558Z,22.63
2018-12-05T01:26:09.210Z,23.50
2018-12-05T01:28:47.789Z,19.17
2018-12-05T01:31:27.111Z,57.57
2018-12-05T01:34:06.821Z,19.83
2018-12-05T01:36:46.111Z,15.73
2018-12-05T01:39:24.995Z,47.90
2018-12-05T01:42:04.042Z,30.93
2018-12-05T01:44:42.955Z,12.83
2018-12-05T01:47:22.038Z,32.27
2018-12-05T01:50:00.685Z,19.43
2018-12-05T01:52:40.191Z,27.77
2018-12-05T01:55:20.428Z,32.93
2018-12-05T01:57:59.260Z,19.03
2018-12-05T02:00:37.938Z,76.03
2018-12-05T02:03:16.927Z,30.30
2018-12-05T02:05:55.465Z,14.33
2018-12-05T02:08:33.834Z,25.07
2018-12-05T02:11:12.544Z,44.37
2018-12-05T02:13:51.376Z,18.57
2018-12-05T02:16:31.180Z,23.07
2018-12-05T02:19:09.836Z,34.93
2018-12-05T02:21:48.648Z,30.17
2018-12-05T02:24:27.294Z,12.63
2018-12-05T02:27:06.192Z,33.77
2018-12-05T02:29:49.058Z,25.13
2018-12-05T02:32:27.740Z,73.67
2018-12-05T02:35:09.327Z,18.10
2018-12-05T02:37:50.128Z,14.00
2018-12-05T02:40:29.096Z,15.63
2018-12-05T02:43:09.547Z,22.67
2018-12-05T02:45:48.277Z,22.07
2018-12-05T02:48:27.347Z,20.83
2018-12-05T02:51:06.363Z,19.97
2018-12-05T02:53:46.074Z,26.27
2018-12-05T02:56:25.372Z,19.93
2018-12-05T02:59:05.445Z,31.57
2018-12-05T03:01:44.466Z,20.20
2018-12-05T03:04:23.620Z,35.40
2018-12-05T03:07:02.537Z,23.87
2018-12-05T03:09:41.546Z,18.73
2018-12-05T03:12:21.077Z,54.60
2018-12-05T03:15:00.155Z,14.77
2018-12-05T03:17:39.893Z,29.77
2018-12-05T03:20:18.779Z,31.47
2018-12-05T03:22:57.874Z,21.27
2018-12-05T03:25:38.172Z,16.17
2018-12-05T03:28:17.167Z,28.30
2018-12-05T03:30:57.868Z,17.73
2018-12-05T03:33:37.886Z,27.90
2018-12-05T03:36:17.797Z,28.47
2018-12-05T03:38:57.753Z,19.63
2018-12-05T03:41:36.781Z,20.50
2018-12-05T03:44:17.739Z,29.47
2018-12-05T03:46:57.100Z,36.83
2018-12-05T03:49:36.222Z,34.17
2018-12-05T03:52:15.012Z,25.23
2018-12-05T03:54:55.542Z,18.20
2018-12-05T03:57:34.488Z,34.93
2018-12-05T04:00:13.441Z,32.00
2018-12-05T04:02:52.365Z,23.37
2018-12-05T04:05:32.536Z,17.50
2018-12-05T04:08:13.694Z,12.37
2018-12-05T04:10:52.532Z,18.47
2018-12-05T04:13:31.413Z,13.67
2018-12-05T04:16:11.923Z,33.13
2018-12-05T04:18:52.196Z,19.43
2018-12-05T04:21:31.648Z,14.30
2018-12-05T04:24:11.409Z,21.07
2018-12-05T04:26:50.317Z,20.93
2018-12-05T04:29:29.203Z,12.40
2018-12-05T04:32:08.180Z,24.60
2018-12-05T04:34:48.079Z,29.10
2018-12-05T04:37:27.138Z,12.70
2018-12-05T04:40:06.168Z,13.77
2018-12-05T04:42:46.649Z,14.07
2018-12-05T04:45:25.989Z,17.17
2018-12-05T04:48:04.969Z,15.20
2018-12-05T04:50:43.829Z,20.43
2018-12-05T04:59:56.995Z,34.10
2018-12-05T05:02:38.079Z,15.17
2018-12-05T05:05:17.336Z,21.23
2018-12-05T05:07:56.242Z,12.70
2018-12-05T05:10:35.308Z,25.43
2018-12-05T05:13:16.537Z,18.63
2018-12-05T05:15:55.680Z,13.50
2018-12-05T05:18:34.599Z,21.83
2018-12-05T05:21:13.569Z,13.13
2018-12-05T05:23:52.431Z,11.20
2018-12-05T05:26:31.475Z,12.87
2018-12-05T05:29:10.565Z,23.63
2018-12-05T05:31:49.651Z,17.10
2018-12-05T05:34:29.772Z,15.23
2018-12-05T05:37:09.920Z,23.37
2018-12-05T05:39:49.653Z,20.03
2018-12-05T05:42:29.375Z,64.57
2018-12-05T05:45:08.000Z,16.73
2018-12-05T05:47:46.849Z,42.50
2018-12-05T05:50:27.073Z,12.73
2018-12-05T05:53:05.831Z,31.17
2018-12-05T05:55:45.534Z,12.27
2018-12-05T05:58:24.575Z,13.03
2018-12-05T06:01:05.984Z,14.80
2018-12-05T06:03:44.962Z,29.30
2018-12-05T06:06:24.077Z,23.13
2018-12-05T06:09:03.234Z,22.33
2018-12-05T06:11:42.397Z,17.93
2018-12-05T06:14:21.244Z,16.53
2018-12-05T06:17:00.072Z,21.90
2018-12-05T06:19:39.017Z,15.93
2018-12-05T06:22:19.027Z,35.00
2018-12-05T06:24:57.706Z,24.07
2018-12-05T06:27:36.709Z,39.13
2018-12-05T06:30:15.913Z,26.33
2018-12-05T06:32:55.218Z,29.57
2018-12-05T06:35:34.212Z,34.63
2018-12-05T06:38:12.963Z,30.50
2018-12-05T06:40:51.665Z,15.37
2018-12-05T06:43:30.389Z,12.33
2018-12-05T06:46:09.355Z,29.60
2018-12-05T06:48:48.051Z,10.00
2018-12-05T06:51:26.813Z,18.07
2018-12-05T06:54:06.353Z,13.00
2018-12-05T06:56:46.966Z,12.30
2018-12-05T06:59:27.123Z,12.17
2018-12-05T07:02:06.020Z,18.93
2018-12-05T07:04:44.688Z,20.37
2018-12-05T07:07:26.040Z,27.87
2018-12-05T07:10:08.872Z,16.40
2018-12-05T07:12:47.806Z,14.07
2018-12-05T07:15:26.733Z,17.47
2018-12-05T07:18:06.271Z,11.80
2018-12-05T07:20:46.724Z,14.07
2018-12-05T07:23:25.948Z,19.80
2018-12-05T07:26:05.234Z,17.37
2018-12-05T07:28:44.608Z,11.47
2018-12-05T07:31:24.616Z,30.97
2018-12-05T07:34:04.947Z,23.10
2018-12-05T07:36:44.301Z,17.90
2018-12-05T07:39:24.713Z,18.63
2018-12-05T07:42:04.576Z,17.00
2018-12-05T07:44:44.240Z,13.60
2018-12-05T07:47:24.461Z,17.07
2018-12-05T07:50:06.279Z,20.90
2018-12-05T07:56:54.680Z,23.53
2018-12-05T08:02:11.449Z,20.17
2018-12-05T08:04:51.263Z,13.73
2018-12-05T08:07:30.680Z,17.60
2018-12-05T08:10:13.909Z,15.13
2018-12-05T08:12:54.107Z,11.53
2018-12-05T08:15:36.143Z,28.53
2018-12-05T08:18:16.163Z,27.30
2018-12-05T08:20:56.573Z,17.43
2018-12-05T08:23:36.605Z,20.07
2018-12-05T08:26:16.734Z,24.77
2018-12-05T08:28:57.676Z,15.83
2018-12-05T08:31:39.025Z,27.40
2018-12-05T08:34:21.234Z,23.57
2018-12-05T08:37:01.531Z,14.20
2018-12-05T08:39:45.596Z,19.03
2018-12-05T08:42:28.832Z,65.27
2018-12-05T08:45:10.390Z,28.03
2018-12-05T08:47:51.019Z,22.70
2018-12-05T08:50:34.964Z,15.67
2018-12-05T08:53:15.228Z,34.60
2018-12-05T08:55:57.395Z,16.70
2018-12-05T08:58:40.933Z,17.27
2018-12-05T09:01:24.452Z,39.07
2018-12-05T09:04:08.300Z,30.73
2018-12-05T09:06:49.094Z,19.33
2018-12-05T09:09:30.349Z,25.33
2018-12-05T09:12:12.367Z,32.17
2018-12-05T09:15:09.145Z,19.57
2018-12-05T09:17:48.334Z,30.03
2018-12-05T09:20:28.013Z,18.03
2018-12-05T09:23:07.489Z,20.27
2018-12-05T09:25:47.217Z,18.53
2018-12-05T09:28:26.556Z,23.13
2018-12-05T09:31:07.629Z,23.03
2018-12-05T09:33:49.494Z,19.70
2018-12-05T09:36:29.145Z,22.67
2018-12-05T09:39:11.454Z,26.30
2018-12-05T09:41:51.496Z,21.97
2018-12-05T09:44:30.255Z,21.20
2018-12-05T09:47:15.854Z,30.23
2018-12-05T09:49:55.998Z,14.63
2018-12-05T09:52:37.744Z,27.07
2018-12-05T09:55:17.467Z,22.13
2018-12-05T09:57:57.961Z,23.27
2018-12-05T10:00:39.147Z,24.20
2018-12-05T10:03:22.239Z,20.03
2018-12-05T10:06:02.303Z,49.63
2018-12-05T10:08:47.820Z,24.67
2018-12-05T10:11:27.443Z,25.37
2018-12-05T10:14:06.164Z,21.23
2018-12-05T10:16:45.177Z,21.00
2018-12-05T10:19:24.850Z,26.70
2018-12-05T10:22:04.343Z,19.37
2018-12-05T10:24:44.543Z,52.20
2018-12-05T10:27:25.881Z,25.60
2018-12-05T10:30:08.134Z,20.17
2018-12-05T10:32:57.219Z,22.13
2018-12-05T10:35:37.567Z,32.77
2018-12-05T10:38:17.489Z,44.07
2018-12-05T10:40:57.301Z,42.80
2018-12-05T10:43:37.250Z,49.83
2018-12-05T10:46:20.123Z,101.67
2018-12-05T10:48:59.926Z,36.20
2018-12-05T10:51:41.697Z,24.90
2018-12-05T10:54:23.085Z,22.93
2018-12-05T10:57:02.796Z,27.17
2018-12-05T10:59:42.419Z,17.17
2018-12-05T11:02:24.923Z,63.50
2018-12-05T11:05:09.082Z,23.40
2018-12-05T11:07:52.365Z,23.60
2018-12-05T11:10:36.009Z,24.13
2018-12-05T11:14:17.659Z,29.67
2018-12-05T11:17:01.631Z,36.63
2018-12-05T11:20:49.132Z,24.33
2018-12-05T11:23:37.237Z,19.30
2018-12-05T11:26:22.476Z,29.97
2018-12-05T11:29:03.843Z,25.87
2018-12-05T11:31:43.649Z,27.73
2018-12-05T11:34:23.708Z,26.37
2018-12-05T11:37:04.302Z,20.10
2018-12-05T11:39:46.157Z,34.97
2018-12-05T11:42:25.452Z,73.60
2018-12-05T11:45:14.857Z,22.60
2018-12-05T11:48:00.200Z,22.20
2018-12-05T11:53:35.494Z,22.77
2018-12-05T12:00:02.981Z,28.80
2018-12-05T12:02:43.481Z,31.20
2018-12-05T12:05:22.551Z,24.63
2018-12-05T12:08:01.912Z,27.37
2018-12-05T12:10:43.372Z,25.17
2018-12-05T12:13:23.233Z,31.97
2018-12-05T12:16:04.402Z,37.27
2018-12-05T12:18:46.887Z,21.30
2018-12-05T12:21:27.971Z,33.07
2018-12-05T12:24:07.542Z,27.80
2018-12-05T12:26:48.124Z,29.67
2018-12-05T12:29:31.627Z,23.23
2018-12-05T12:32:13.189Z,36.63
2018-12-05T12:34:54.706Z,24.60
2018-12-05T12:37:34.889Z,21.70
2018-12-05T12:40:16.280Z,28.67
2018-12-05T12:42:56.552Z,23.40
2018-12-05T12:45:37.242Z,25.67
2018-12-05T12:48:16.703Z,28.50
2018-12-05T12:50:57.201Z,34.07
2018-12-05T12:53:37.048Z,36.50
2018-12-05T12:56:18.167Z,22.37
2018-12-05T12:59:00.704Z,35.13
2018-12-05T13:01:39.939Z,29.87
2018-12-05T13:04:21.250Z,33.87
2018-12-05T13:07:00.984Z,30.60
2018-12-05T13:09:41.654Z,33.87
2018-12-05T13:12:25.687Z,84.40
2018-12-05T13:18:07.549Z,51.67
2018-12-05T13:20:46.792Z,63.40
2018-12-05T13:23:27.042Z,74.83
2018-12-05T13:26:06.577Z,82.63
2018-12-05T13:28:47.631Z,70.73
2018-12-05T13:31:30.217Z,94.43
2018-12-05T13:34:10.500Z,62.27
2018-12-05T13:36:53.986Z,76.70
2018-12-05T13:39:33.669Z,78.27
2018-12-05T13:42:12.625Z,68.20
2018-12-05T13:44:52.397Z,87.37
2018-12-05T13:47:32.085Z,73.73
2018-12-05T13:50:11.766Z,67.23
2018-12-05T13:52:52.787Z,71.63
2018-12-05T13:55:31.961Z,74.00
2018-12-05T13:58:11.132Z,69.93
2018-12-05T14:00:55.938Z,69.50
2018-12-05T14:03:34.988Z,91.07
2018-12-05T14:06:15.789Z,80.53
2018-12-05T14:08:55.459Z,63.17
2018-12-05T14:11:34.535Z,63.60
2018-12-05T14:14:14.105Z,75.33
2018-12-05T14:16:53.633Z,61.40
2018-12-05T14:19:33.510Z,84.07
2018-12-05T14:22:13.966Z,86.30
2018-12-05T14:24:54.559Z,65.20
2018-12-05T14:27:33.888Z,72.20
2018-12-05T14:30:15.173Z,100.73
2018-12-05T14:32:57.031Z,76.27
2018-12-05T14:35:36.170Z,63.00
2018-12-05T14:38:15.244Z,91.33
2018-12-05T14:40:54.891Z,87.97
2018-12-05T14:43:34.129Z,78.90
2018-12-05T14:46:13.424Z,81.63
2018-12-05T14:48:52.857Z,82.07
2018-12-05T14:51:32.085Z,71.23
2018-12-05T14:54:11.519Z,79.47
2018-12-05T14:56:51.119Z,66.90
2018-12-05T14:59:30.183Z,66.97
2018-12-05T15:02:09.374Z,79.93
2018-12-05T15:04:48.501Z,71.77
2018-12-05T15:07:30.655Z,93.40
2018-12-05T15:10:10.284Z,81.83
2018-12-05T15:12:53.541Z,73.17
2018-12-05T15:18:40.688Z,89.10
2018-12-05T15:21:20.606Z,76.47
2018-12-05T15:23:59.653Z,78.13
2018-12-05T15:26:39.063Z,109.83
2018-12-05T15:29:18.622Z,63.37
2018-12-05T15:32:05.110Z,64.83
2018-12-05T15:34:45.459Z,63.77
2018-12-05T15:37:24.527Z,72.70
2018-12-05T15:40:03.911Z,54.23
2018-12-05T15:42:47.565Z,68.20
2018-12-05T15:45:26.531Z,55.80
2018-12-05T15:51:03.883Z,47.63
2018-12-05T15:53:43.671Z,58.40
2018-12-05T15:56:23.254Z,53.90
2018-12-05T15:59:02.171Z,54.63
2018-12-05T16:01:43.872Z,47.70
2018-12-05T16:04:23.049Z,62.70
2018-12-05T16:07:02.288Z,47.27
2018-12-05T16:09:42.649Z,55.20
2018-12-05T16:12:21.794Z,104.20
2018-12-05T16:15:01.236Z,55.90
2018-12-05T16:17:40.454Z,62.73
2018-12-05T16:20:19.603Z,49.47
2018-12-05T16:22:59.218Z,63.90
2018-12-05T16:25:39.803Z,48.47
2018-12-05T16:28:18.706Z,47.03
2018-12-05T16:31:01.737Z,43.70
2018-12-05T16:33:40.729Z,64.70
2018-12-05T16:36:19.775Z,60.77
2018-12-05T16:38:58.943Z,49.30
2018-12-05T16:41:38.297Z,48.40
2018-12-05T16:44:17.716Z,55.20
2018-12-05T16:46:56.458Z,47.30
2018-12-05T16:49:40.358Z,45.67
2018-12-05T16:52:21.928Z,75.03
2018-12-05T16:55:01.020Z,43.67
2018-12-05T16:57:41.993Z,44.53
2018-12-05T17:00:34.497Z,61.10
2018-12-05T17:03:17.591Z,75.47
2018-12-05T17:08:48.325Z,42.53
2018-12-05T17:11:27.860Z,47.70
2018-12-05T17:14:07.585Z,43.17
2018-12-05T17:16:47.538Z,44.37
2018-12-05T17:19:27.075Z,51.97
2018-12-05T17:22:06.326Z,36.63
2018-12-05T17:24:47.592Z,32.67
2018-12-05T17:27:27.177Z,38.10
2018-12-05T17:30:06.656Z,32.93
2018-12-05T17:32:46.214Z,44.10
2018-12-05T17:35:30.530Z,49.70
2018-12-05T17:38:11.270Z,57.00
2018-12-05T17:41:03.667Z,52.30
2018-12-05T17:43:43.675Z,53.17
2018-12-05T17:46:25.060Z,48.53
2018-12-05T17:49:04.496Z,41.37
2018-12-05T17:51:46.056Z,30.97
2018-12-05T17:54:25.626Z,36.70
2018-12-05T17:57:07.567Z,34.30
2018-12-05T17:59:46.655Z,37.77
2018-12-05T18:02:26.218Z,70.30
2018-12-05T18:05:05.645Z,30.00
2018-12-05T18:07:46.401Z,35.20
2018-12-05T18:10:26.697Z,31.23
2018-12-05T18:13:06.139Z,23.40
2018-12-05T18:15:48.306Z,29.73
2018-12-05T18:18:27.373Z,23.67
2018-12-05T18:21:10.639Z,33.53
2018-12-05T18:23:50.753Z,30.70
2018-12-05T18:26:30.825Z,25.93
2018-12-05T18:29:10.472Z,42.73
2018-12-05T18:31:50.244Z,33.90
2018-12-05T18:34:29.904Z,38.47
2018-12-05T18:37:18.890Z,40.30
2018-12-05T18:39:58.390Z,29.87
2018-12-05T18:42:39.443Z,42.03
2018-12-05T18:45:35.292Z,49.33
2018-12-05T18:48:28.632Z,38.33
2018-12-05T18:51:08.485Z,54.27
2018-12-05T18:56:37.517Z,34.80
2018-12-05T18:59:17.380Z,38.03
2018-12-05T19:01:58.679Z,43.23
2018-12-05T19:04:49.133Z,72.20
2018-12-05T19:07:39.111Z,55.67
2018-12-05T19:10:19.050Z,43.80
2018-12-05T19:13:00.685Z,55.47
2018-12-05T19:15:45.576Z,77.57
2018-12-05T19:18:27.411Z,45.97
2018-12-05T19:21:06.615Z,31.70
2018-12-05T19:23:49.769Z,43.50
2018-12-05T19:26:30.452Z,50.57
2018-12-05T19:29:10.034Z,47.83
2018-12-05T19:31:49.620Z,63.00
2018-12-05T19:34:29.167Z,35.43
2018-12-05T19:37:08.595Z,29.47
2018-12-05T19:39:48.741Z,35.60
2018-12-05T19:42:28.082Z,61.63
2018-12-05T19:45:10.137Z,31.87
2018-12-05T19:47:49.743Z,33.67
2018-12-05T19:50:29.548Z,28.47
2018-12-05T19:53:09.040Z,36.43
2018-12-05T19:55:49.631Z,45.57
2018-12-05T19:58:29.005Z,40.23
2018-12-05T20:01:08.703Z,35.97
2018-12-05T20:03:49.406Z,30.83
2018-12-05T20:06:29.344Z,28.60
2018-12-05T20:09:11.144Z,31.07
2018-12-05T20:11:50.545Z,34.80
2018-12-05T20:14:36.125Z,34.33
2018-12-05T20:17:19.740Z,38.50
2018-12-05T20:20:00.380Z,35.23
2018-12-05T20:22:42.896Z,36.50
2018-12-05T20:25:22.211Z,40.67
2018-12-05T20:28:01.624Z,32.80
2018-12-05T20:30:41.354Z,32.03
2018-12-05T20:33:21.804Z,42.97
2018-12-05T20:36:01.953Z,28.97
2018-12-05T20:38:45.257Z,29.70
2018-12-05T20:41:31.104Z,37.60
2018-12-05T20:44:08.091Z,28.50
2018-12-05T20:46:51.791Z,29.90
2018-12-05T20:49:32.003Z,39.33
2018-12-05T20:52:11.966Z,39.13
2018-12-05T20:54:54.787Z,28.47
2018-12-05T20:57:34.971Z,29.17
2018-12-05T21:00:15.057Z,36.90
2018-12-05T21:02:55.554Z,36.13
2018-12-05T21:05:35.079Z,27.43
2018-12-05T21:08:20.005Z,42.50
2018-12-05T21:10:59.594Z,39.53
2018-12-05T21:13:39.206Z,36.20
2018-12-05T21:16:19.133Z,40.37
2018-12-05T21:18:58.799Z,44.60
2018-12-05T21:21:38.275Z,32.27
2018-12-05T21:24:17.841Z,38.47
2018-12-05T21:26:58.054Z,39.03
2018-12-05T21:29:43.085Z,36.83
2018-12-05T21:32:22.791Z,84.03
2018-12-05T21:35:02.883Z,49.90
2018-12-05T21:37:43.681Z,51.03
2018-12-05T21:40:28.821Z,46.93
2018-12-05T21:43:09.343Z,47.60
2018-12-05T21:45:49.463Z,53.77
2018-12-05T21:48:28.653Z,57.50
2018-12-05T21:51:12.231Z,65.33
2018-12-05T21:53:51.850Z,52.83
2018-12-05T21:56:31.753Z,72.80
2018-12-05T21:59:11.433Z,67.70
2018-12-05T22:02:01.315Z,58.43
2018-12-05T22:04:41.063Z,69.57
2018-12-05T22:07:20.376Z,63.03
2018-12-05T22:10:00.830Z,46.00
2018-12-05T22:12:41.338Z,44.33
2018-12-05T22:15:25.099Z,62.87
2018-12-05T22:18:05.589Z,78.37
2018-12-05T22:20:48.780Z,57.87
2018-12-05T22:23:28.433Z,65.77
2018-12-05T22:26:10.810Z,55.03
2018-12-05T22:28:51.946Z,52.13
2018-12-05T22:31:32.387Z,60.17
2018-12-05T22:34:11.763Z,66.17
2018-12-05T22:36:55.266Z,56.57
2018-12-05T22:39:35.100Z,61.73
2018-12-05T22:42:23.989Z,71.27
2018-12-05T22:45:05.855Z,59.23
2018-12-05T22:47:46.335Z,62.17
2018-12-05T22:50:28.572Z,59.23
2018-12-05T22:53:12.598Z,48.27
2018-12-05T22:55:51.846Z,62.63
2018-12-05T22:58:31.825Z,50.50
2018-12-05T23:01:20.822Z,90.90
2018-12-05T23:04:02.902Z,66.00
2018-12-05T23:06:42.611Z,44.37
2018-12-05T23:09:23.600Z,55.63
2018-12-05T23:12:03.709Z,55.20
2018-12-05T23:18:26.055Z,58.53
2018-12-05T23:21:05.753Z,50.80
2018-12-05T23:23:47.337Z,41.50
2018-12-05T23:26:26.454Z,39.33
2018-12-05T23:29:05.864Z,39.07
2018-12-05T23:31:45.661Z,42.17
2018-12-05T23:34:25.757Z,62.67
2018-12-05T23:37:04.884Z,39.57
2018-12-05T23:39:46.104Z,43.07
2018-12-05T23:42:25.265Z,78.53
2018-12-05T23:45:04.048Z,37.60
2018-12-05T23:47:43.262Z,36.60
2018-12-05T23:50:22.609Z,47.70
2018-12-05T23:53:06.856Z,50.33
2018-12-05T23:55:46.325Z,29.07
2018-12-05T23:58:26.764Z,33.13
